sensor_id;sensor_type;location;lat;lon;timestamp;P1;durP1;ratioP1;P2;durP2;ratioP2
4827;SDS011;2428;48.732;9.148;2023-08-01T00:02:25;1.77;;;1.57;;
4827;SDS011;2428;48.732;9.148;2023-08-01T00:04:51;1.47;;;1.37;;
4827;SDS011;2428;48.732;9.148;2023-08-01T00:07:16;1.43;;;1.33;;
4827;SDS011;2428;48.732;9.148;2023-08-01T00:09:42;4.57;;;1.93;;
4827;SDS011;2428;48.732;9.148;2023-08-01T00:12:07;2.67;;;2.10;;
4827;SDS011;2428;48.732;9.148;2023-08-01T00:14:33;4.63;;;1.93;;
4827;SDS011;2428;48.732;9.148;2023-08-01T00:17:00;2.20;;;1.97;;
4827;SDS011;2428;48.732;9.148;2023-08-01T00:19:25;3.87;;;1.93;;
4827;SDS011;2428;48.732;9.148;2023-08-01T00:21:51;2.23;;;2.00;;
4827;SDS011;2428;48.732;9.148;2023-08-01T00:24:17;1.83;;;1.57;;
4827;SDS011;2428;48.732;9.148;2023-08-01T00:26:42;2.70;;;1.83;;
4827;SDS011;2428;48.732;9.148;2023-08-01T00:29:08;2.63;;;1.90;;
4827;SDS011;2428;48.732;9.148;2023-08-01T00:31:33;1.97;;;1.50;;
4827;SDS011;2428;48.732;9.148;2023-08-01T00:33:59;2.20;;;1.40;;
4827;SDS011;2428;48.732;9.148;2023-08-01T00:36:24;2.03;;;1.93;;
4827;SDS011;2428;48.732;9.148;2023-08-01T00:38:50;4.87;;;2.30;;
4827;SDS011;2428;48.732;9.148;2023-08-01T00:41:15;2.00;;;1.80;;
4827;SDS011;2428;48.732;9.148;2023-08-01T00:43:41;3.10;;;1.80;;
4827;SDS011;2428;48.732;9.148;2023-08-01T00:46:06;3.10;;;1.77;;
4827;SDS011;2428;48.732;9.148;2023-08-01T00:48:33;3.37;;;1.90;;
4827;SDS011;2428;48.732;9.148;2023-08-01T00:51:05;2.10;;;1.90;;
4827;SDS011;2428;48.732;9.148;2023-08-01T00:53:32;3.40;;;1.47;;
4827;SDS011;2428;48.732;9.148;2023-08-01T00:55:58;2.00;;;1.80;;
4827;SDS011;2428;48.732;9.148;2023-08-01T00:58:24;3.50;;;1.93;;
4827;SDS011;2428;48.732;9.148;2023-08-01T01:00:50;2.23;;;1.67;;
4827;SDS011;2428;48.732;9.148;2023-08-01T01:03:16;2.30;;;1.70;;
4827;SDS011;2428;48.732;9.148;2023-08-01T01:05:43;2.00;;;1.30;;
4827;SDS011;2428;48.732;9.148;2023-08-01T01:08:21;1.60;;;1.50;;
4827;SDS011;2428;48.732;9.148;2023-08-01T01:10:47;1.40;;;1.30;;
4827;SDS011;2428;48.732;9.148;2023-08-01T01:13:12;1.90;;;1.57;;
4827;SDS011;2428;48.732;9.148;2023-08-01T01:15:38;2.63;;;1.37;;
4827;SDS011;2428;48.732;9.148;2023-08-01T01:18:04;2.67;;;1.70;;
4827;SDS011;2428;48.732;9.148;2023-08-01T01:20:31;4.67;;;2.50;;
4827;SDS011;2428;48.732;9.148;2023-08-01T01:22:59;2.57;;;1.93;;
4827;SDS011;2428;48.732;9.148;2023-08-01T01:25:26;2.60;;;1.80;;
4827;SDS011;2428;48.732;9.148;2023-08-01T01:27:53;2.50;;;1.70;;
4827;SDS011;2428;48.732;9.148;2023-08-01T01:30:19;2.70;;;1.73;;
4827;SDS011;2428;48.732;9.148;2023-08-01T01:32:46;2.27;;;1.30;;
4827;SDS011;2428;48.732;9.148;2023-08-01T01:35:11;2.63;;;2.20;;
4827;SDS011;2428;48.732;9.148;2023-08-01T01:37:37;2.20;;;2.00;;
4827;SDS011;2428;48.732;9.148;2023-08-01T01:40:03;1.77;;;1.57;;
4827;SDS011;2428;48.732;9.148;2023-08-01T01:42:29;2.67;;;2.10;;
4827;SDS011;2428;48.732;9.148;2023-08-01T01:44:54;3.10;;;2.10;;
4827;SDS011;2428;48.732;9.148;2023-08-01T01:47:20;1.40;;;1.30;;
4827;SDS011;2428;48.732;9.148;2023-08-01T01:49:45;1.83;;;1.60;;
4827;SDS011;2428;48.732;9.148;2023-08-01T01:52:11;2.03;;;1.83;;
4827;SDS011;2428;48.732;9.148;2023-08-01T01:54:36;2.13;;;1.93;;
4827;SDS011;2428;48.732;9.148;2023-08-01T01:57:02;2.53;;;1.80;;
4827;SDS011;2428;48.732;9.148;2023-08-01T01:59:27;2.67;;;2.47;;
4827;SDS011;2428;48.732;9.148;2023-08-01T02:01:53;2.00;;;1.63;;
4827;SDS011;2428;48.732;9.148;2023-08-01T02:04:19;4.07;;;2.70;;
4827;SDS011;2428;48.732;9.148;2023-08-01T02:06:46;3.53;;;2.40;;
4827;SDS011;2428;48.732;9.148;2023-08-01T02:09:12;4.00;;;2.37;;
4827;SDS011;2428;48.732;9.148;2023-08-01T02:11:38;1.87;;;1.77;;
4827;SDS011;2428;48.732;9.148;2023-08-01T02:14:04;2.17;;;1.50;;
4827;SDS011;2428;48.732;9.148;2023-08-01T02:16:29;3.70;;;1.90;;
4827;SDS011;2428;48.732;9.148;2023-08-01T02:18:55;2.57;;;2.00;;
4827;SDS011;2428;48.732;9.148;2023-08-01T02:21:20;3.20;;;2.40;;
4827;SDS011;2428;48.732;9.148;2023-08-01T02:23:46;2.97;;;2.30;;
4827;SDS011;2428;48.732;9.148;2023-08-01T02:26:11;4.33;;;2.37;;
4827;SDS011;2428;48.732;9.148;2023-08-01T02:28:37;3.07;;;2.70;;
4827;SDS011;2428;48.732;9.148;2023-08-01T02:31:03;2.80;;;1.87;;
4827;SDS011;2428;48.732;9.148;2023-08-01T02:33:28;4.97;;;2.73;;
4827;SDS011;2428;48.732;9.148;2023-08-01T02:35:54;2.73;;;1.77;;
4827;SDS011;2428;48.732;9.148;2023-08-01T02:38:20;1.80;;;1.70;;
4827;SDS011;2428;48.732;9.148;2023-08-01T02:40:45;1.73;;;1.43;;
4827;SDS011;2428;48.732;9.148;2023-08-01T02:43:11;1.73;;;1.60;;
4827;SDS011;2428;48.732;9.148;2023-08-01T02:45:36;2.30;;;2.10;;
4827;SDS011;2428;48.732;9.148;2023-08-01T02:48:02;3.47;;;1.47;;
4827;SDS011;2428;48.732;9.148;2023-08-01T02:50:27;2.20;;;1.97;;
4827;SDS011;2428;48.732;9.148;2023-08-01T02:52:53;2.30;;;2.20;;
4827;SDS011;2428;48.732;9.148;2023-08-01T02:55:19;2.57;;;1.83;;
4827;SDS011;2428;48.732;9.148;2023-08-01T02:57:44;4.70;;;2.17;;
4827;SDS011;2428;48.732;9.148;2023-08-01T03:00:10;5.17;;;2.10;;
4827;SDS011;2428;48.732;9.148;2023-08-01T03:02:38;1.70;;;1.60;;
4827;SDS011;2428;48.732;9.148;2023-08-01T03:05:07;3.00;;;2.00;;
4827;SDS011;2428;48.732;9.148;2023-08-01T03:07:34;3.17;;;2.03;;
4827;SDS011;2428;48.732;9.148;2023-08-01T03:10:00;2.70;;;1.80;;
4827;SDS011;2428;48.732;9.148;2023-08-01T03:12:26;2.30;;;1.73;;
4827;SDS011;2428;48.732;9.148;2023-08-01T03:14:52;2.20;;;1.97;;
4827;SDS011;2428;48.732;9.148;2023-08-01T03:17:17;2.70;;;2.07;;
4827;SDS011;2428;48.732;9.148;2023-08-01T03:19:43;3.33;;;1.93;;
4827;SDS011;2428;48.732;9.148;2023-08-01T03:22:09;2.40;;;1.80;;
4827;SDS011;2428;48.732;9.148;2023-08-01T03:24:35;3.13;;;1.70;;
4827;SDS011;2428;48.732;9.148;2023-08-01T03:27:01;2.13;;;1.93;;
4827;SDS011;2428;48.732;9.148;2023-08-01T03:29:26;2.13;;;1.83;;
4827;SDS011;2428;48.732;9.148;2023-08-01T03:31:52;4.77;;;2.50;;
4827;SDS011;2428;48.732;9.148;2023-08-01T03:34:18;2.73;;;1.47;;
4827;SDS011;2428;48.732;9.148;2023-08-01T03:36:43;5.83;;;2.03;;
4827;SDS011;2428;48.732;9.148;2023-08-01T03:39:09;2.00;;;1.63;;
4827;SDS011;2428;48.732;9.148;2023-08-01T03:41:35;2.43;;;2.20;;
4827;SDS011;2428;48.732;9.148;2023-08-01T03:44:02;2.13;;;1.57;;
4827;SDS011;2428;48.732;9.148;2023-08-01T03:46:27;2.77;;;2.10;;
4827;SDS011;2428;48.732;9.148;2023-08-01T03:48:53;2.43;;;2.07;;
4827;SDS011;2428;48.732;9.148;2023-08-01T03:51:19;2.40;;;1.90;;
4827;SDS011;2428;48.732;9.148;2023-08-01T03:53:45;1.93;;;1.30;;
4827;SDS011;2428;48.732;9.148;2023-08-01T03:56:11;2.23;;;1.67;;
4827;SDS011;2428;48.732;9.148;2023-08-01T03:58:37;2.13;;;2.03;;
4827;SDS011;2428;48.732;9.148;2023-08-01T04:01:02;2.30;;;1.60;;
4827;SDS011;2428;48.732;9.148;2023-08-01T04:03:28;2.33;;;2.13;;
4827;SDS011;2428;48.732;9.148;2023-08-01T04:05:53;1.70;;;1.60;;
4827;SDS011;2428;48.732;9.148;2023-08-01T04:08:19;2.47;;;1.70;;
4827;SDS011;2428;48.732;9.148;2023-08-01T04:10:45;1.50;;;1.37;;
4827;SDS011;2428;48.732;9.148;2023-08-01T04:13:11;2.80;;;1.50;;
4827;SDS011;2428;48.732;9.148;2023-08-01T04:15:36;1.90;;;1.40;;
4827;SDS011;2428;48.732;9.148;2023-08-01T04:18:02;2.07;;;1.50;;
4827;SDS011;2428;48.732;9.148;2023-08-01T04:20:27;2.90;;;1.47;;
4827;SDS011;2428;48.732;9.148;2023-08-01T04:22:53;2.20;;;2.00;;
4827;SDS011;2428;48.732;9.148;2023-08-01T04:25:19;1.77;;;1.40;;
4827;SDS011;2428;48.732;9.148;2023-08-01T04:27:45;1.90;;;1.80;;
4827;SDS011;2428;48.732;9.148;2023-08-01T04:30:10;1.70;;;1.60;;
4827;SDS011;2428;48.732;9.148;2023-08-01T04:32:36;2.60;;;1.70;;
4827;SDS011;2428;48.732;9.148;2023-08-01T04:35:02;2.37;;;2.00;;
4827;SDS011;2428;48.732;9.148;2023-08-01T04:37:28;2.17;;;2.03;;
4827;SDS011;2428;48.732;9.148;2023-08-01T04:39:53;2.60;;;2.03;;
4827;SDS011;2428;48.732;9.148;2023-08-01T04:42:19;2.20;;;2.00;;
4827;SDS011;2428;48.732;9.148;2023-08-01T04:44:44;3.83;;;2.10;;
4827;SDS011;2428;48.732;9.148;2023-08-01T04:47:10;2.40;;;2.03;;
4827;SDS011;2428;48.732;9.148;2023-08-01T04:49:36;2.53;;;1.40;;
4827;SDS011;2428;48.732;9.148;2023-08-01T04:52:01;2.53;;;1.63;;
4827;SDS011;2428;48.732;9.148;2023-08-01T04:54:27;3.50;;;2.10;;
4827;SDS011;2428;48.732;9.148;2023-08-01T04:56:53;3.23;;;1.93;;
4827;SDS011;2428;48.732;9.148;2023-08-01T04:59:18;1.77;;;1.43;;
4827;SDS011;2428;48.732;9.148;2023-08-01T05:01:44;2.50;;;1.60;;
4827;SDS011;2428;48.732;9.148;2023-08-01T05:04:10;2.27;;;1.83;;
4827;SDS011;2428;48.732;9.148;2023-08-01T05:06:36;2.30;;;1.83;;
4827;SDS011;2428;48.732;9.148;2023-08-01T05:09:01;2.37;;;1.90;;
4827;SDS011;2428;48.732;9.148;2023-08-01T05:11:27;1.70;;;1.37;;
4827;SDS011;2428;48.732;9.148;2023-08-01T05:13:53;2.40;;;1.63;;
4827;SDS011;2428;48.732;9.148;2023-08-01T05:16:18;2.43;;;1.97;;
4827;SDS011;2428;48.732;9.148;2023-08-01T05:18:44;3.30;;;1.90;;
4827;SDS011;2428;48.732;9.148;2023-08-01T05:21:10;2.50;;;1.97;;
4827;SDS011;2428;48.732;9.148;2023-08-01T05:23:35;3.30;;;1.97;;
4827;SDS011;2428;48.732;9.148;2023-08-01T05:26:01;2.50;;;2.00;;
4827;SDS011;2428;48.732;9.148;2023-08-01T05:28:27;2.63;;;2.10;;
4827;SDS011;2428;48.732;9.148;2023-08-01T05:30:52;2.87;;;2.23;;
4827;SDS011;2428;48.732;9.148;2023-08-01T05:33:18;2.53;;;2.33;;
4827;SDS011;2428;48.732;9.148;2023-08-01T05:35:44;2.00;;;1.73;;
4827;SDS011;2428;48.732;9.148;2023-08-01T05:38:09;4.00;;;2.67;;
4827;SDS011;2428;48.732;9.148;2023-08-01T05:40:35;1.87;;;1.73;;
4827;SDS011;2428;48.732;9.148;2023-08-01T05:43:00;1.63;;;1.30;;
4827;SDS011;2428;48.732;9.148;2023-08-01T05:45:26;3.50;;;2.40;;
4827;SDS011;2428;48.732;9.148;2023-08-01T05:47:52;2.60;;;2.00;;
4827;SDS011;2428;48.732;9.148;2023-08-01T05:50:17;2.07;;;1.87;;
4827;SDS011;2428;48.732;9.148;2023-08-01T05:52:43;5.40;;;2.40;;
4827;SDS011;2428;48.732;9.148;2023-08-01T05:55:08;3.63;;;2.53;;
4827;SDS011;2428;48.732;9.148;2023-08-01T05:57:34;5.63;;;2.50;;
4827;SDS011;2428;48.732;9.148;2023-08-01T06:00:00;2.23;;;1.93;;
4827;SDS011;2428;48.732;9.148;2023-08-01T06:02:25;2.77;;;2.50;;
4827;SDS011;2428;48.732;9.148;2023-08-01T06:04:52;1.83;;;1.50;;
4827;SDS011;2428;48.732;9.148;2023-08-01T06:07:18;2.30;;;1.83;;
4827;SDS011;2428;48.732;9.148;2023-08-01T06:09:48;1.40;;;1.30;;
4827;SDS011;2428;48.732;9.148;2023-08-01T06:12:17;5.90;;;2.50;;
4827;SDS011;2428;48.732;9.148;2023-08-01T06:14:43;2.27;;;2.07;;
4827;SDS011;2428;48.732;9.148;2023-08-01T06:17:10;3.53;;;1.70;;
4827;SDS011;2428;48.732;9.148;2023-08-01T06:19:35;2.43;;;1.70;;
4827;SDS011;2428;48.732;9.148;2023-08-01T06:22:01;3.70;;;2.00;;
4827;SDS011;2428;48.732;9.148;2023-08-01T06:24:26;2.60;;;1.80;;
4827;SDS011;2428;48.732;9.148;2023-08-01T06:26:52;5.20;;;1.60;;
4827;SDS011;2428;48.732;9.148;2023-08-01T06:29:17;2.70;;;1.60;;
4827;SDS011;2428;48.732;9.148;2023-08-01T06:31:43;1.67;;;1.57;;
4827;SDS011;2428;48.732;9.148;2023-08-01T06:34:09;2.37;;;1.90;;
4827;SDS011;2428;48.732;9.148;2023-08-01T06:36:34;3.30;;;2.30;;
4827;SDS011;2428;48.732;9.148;2023-08-01T06:39:00;4.47;;;2.27;;
4827;SDS011;2428;48.732;9.148;2023-08-01T06:41:26;2.60;;;1.90;;
4827;SDS011;2428;48.732;9.148;2023-08-01T06:43:51;2.33;;;2.10;;
4827;SDS011;2428;48.732;9.148;2023-08-01T06:46:17;3.33;;;2.20;;
4827;SDS011;2428;48.732;9.148;2023-08-01T06:48:42;1.63;;;1.53;;
4827;SDS011;2428;48.732;9.148;2023-08-01T06:51:08;3.63;;;2.63;;
4827;SDS011;2428;48.732;9.148;2023-08-01T06:53:33;3.23;;;1.97;;
4827;SDS011;2428;48.732;9.148;2023-08-01T06:55:59;4.00;;;3.03;;
4827;SDS011;2428;48.732;9.148;2023-08-01T06:58:25;5.60;;;1.93;;
4827;SDS011;2428;48.732;9.148;2023-08-01T07:00:50;2.60;;;2.03;;
4827;SDS011;2428;48.732;9.148;2023-08-01T07:03:16;3.70;;;2.40;;
4827;SDS011;2428;48.732;9.148;2023-08-01T07:05:42;2.60;;;2.30;;
4827;SDS011;2428;48.732;9.148;2023-08-01T07:08:07;4.63;;;2.17;;
4827;SDS011;2428;48.732;9.148;2023-08-01T07:10:36;3.03;;;2.13;;
4827;SDS011;2428;48.732;9.148;2023-08-01T07:13:02;2.90;;;2.60;;
4827;SDS011;2428;48.732;9.148;2023-08-01T07:15:29;4.10;;;2.33;;
4827;SDS011;2428;48.732;9.148;2023-08-01T07:17:55;2.43;;;1.87;;
4827;SDS011;2428;48.732;9.148;2023-08-01T07:20:21;5.27;;;2.97;;
4827;SDS011;2428;48.732;9.148;2023-08-01T07:22:47;3.60;;;2.60;;
4827;SDS011;2428;48.732;9.148;2023-08-01T07:25:13;2.90;;;2.07;;
4827;SDS011;2428;48.732;9.148;2023-08-01T07:27:38;2.70;;;2.23;;
4827;SDS011;2428;48.732;9.148;2023-08-01T07:30:04;3.70;;;2.40;;
4827;SDS011;2428;48.732;9.148;2023-08-01T07:32:30;7.93;;;2.50;;
4827;SDS011;2428;48.732;9.148;2023-08-01T07:34:56;5.00;;;2.67;;
4827;SDS011;2428;48.732;9.148;2023-08-01T07:37:21;2.37;;;2.07;;
4827;SDS011;2428;48.732;9.148;2023-08-01T07:39:47;2.30;;;2.10;;
4827;SDS011;2428;48.732;9.148;2023-08-01T07:42:14;4.77;;;2.13;;
4827;SDS011;2428;48.732;9.148;2023-08-01T07:44:40;3.03;;;1.70;;
4827;SDS011;2428;48.732;9.148;2023-08-01T07:47:05;3.87;;;2.30;;
4827;SDS011;2428;48.732;9.148;2023-08-01T07:49:31;2.17;;;1.73;;
4827;SDS011;2428;48.732;9.148;2023-08-01T07:51:57;3.70;;;2.20;;
4827;SDS011;2428;48.732;9.148;2023-08-01T07:54:23;2.50;;;1.87;;
4827;SDS011;2428;48.732;9.148;2023-08-01T07:56:49;3.07;;;1.80;;
4827;SDS011;2428;48.732;9.148;2023-08-01T07:59:15;2.13;;;1.83;;
4827;SDS011;2428;48.732;9.148;2023-08-01T08:01:40;1.50;;;1.40;;
4827;SDS011;2428;48.732;9.148;2023-08-01T08:04:06;2.00;;;1.80;;
4827;SDS011;2428;48.732;9.148;2023-08-01T08:06:32;2.07;;;1.60;;
4827;SDS011;2428;48.732;9.148;2023-08-01T08:08:57;1.43;;;0.87;;
4827;SDS011;2428;48.732;9.148;2023-08-01T08:11:23;2.23;;;1.67;;
4827;SDS011;2428;48.732;9.148;2023-08-01T08:13:49;1.50;;;1.27;;
4827;SDS011;2428;48.732;9.148;2023-08-01T08:16:14;2.17;;;1.00;;
4827;SDS011;2428;48.732;9.148;2023-08-01T08:18:40;4.47;;;1.80;;
4827;SDS011;2428;48.732;9.148;2023-08-01T08:21:06;1.53;;;1.43;;
4827;SDS011;2428;48.732;9.148;2023-08-01T08:23:31;1.87;;;1.47;;
4827;SDS011;2428;48.732;9.148;2023-08-01T08:25:57;1.43;;;1.30;;
4827;SDS011;2428;48.732;9.148;2023-08-01T08:28:29;1.67;;;1.33;;
4827;SDS011;2428;48.732;9.148;2023-08-01T08:30:57;2.20;;;1.23;;
4827;SDS011;2428;48.732;9.148;2023-08-01T08:33:23;2.50;;;1.50;;
4827;SDS011;2428;48.732;9.148;2023-08-01T08:35:49;1.93;;;1.43;;
4827;SDS011;2428;48.732;9.148;2023-08-01T08:38:15;1.40;;;1.30;;
4827;SDS011;2428;48.732;9.148;2023-08-01T08:40:43;1.37;;;1.23;;
4827;SDS011;2428;48.732;9.148;2023-08-01T08:43:15;2.67;;;1.80;;
4827;SDS011;2428;48.732;9.148;2023-08-01T08:45:42;2.50;;;1.50;;
4827;SDS011;2428;48.732;9.148;2023-08-01T08:48:11;1.53;;;1.43;;
4827;SDS011;2428;48.732;9.148;2023-08-01T08:50:42;1.17;;;0.83;;
4827;SDS011;2428;48.732;9.148;2023-08-01T08:53:09;2.40;;;1.80;;
4827;SDS011;2428;48.732;9.148;2023-08-01T08:55:38;1.67;;;1.10;;
4827;SDS011;2428;48.732;9.148;2023-08-01T08:58:05;1.60;;;1.40;;
4827;SDS011;2428;48.732;9.148;2023-08-01T09:00:30;2.60;;;1.60;;
4827;SDS011;2428;48.732;9.148;2023-08-01T09:02:56;1.10;;;1.00;;
4827;SDS011;2428;48.732;9.148;2023-08-01T09:05:23;2.60;;;1.67;;
4827;SDS011;2428;48.732;9.148;2023-08-01T09:07:52;1.40;;;1.30;;
4827;SDS011;2428;48.732;9.148;2023-08-01T09:10:22;1.97;;;1.73;;
4827;SDS011;2428;48.732;9.148;2023-08-01T09:12:48;1.73;;;1.63;;
4827;SDS011;2428;48.732;9.148;2023-08-01T09:15:14;1.13;;;1.10;;
4827;SDS011;2428;48.732;9.148;2023-08-01T09:17:52;1.30;;;0.87;;
4827;SDS011;2428;48.732;9.148;2023-08-01T09:20:25;1.53;;;1.10;;
4827;SDS011;2428;48.732;9.148;2023-08-01T09:22:52;2.37;;;1.10;;
4827;SDS011;2428;48.732;9.148;2023-08-01T09:25:17;1.20;;;1.07;;
4827;SDS011;2428;48.732;9.148;2023-08-01T09:27:43;1.63;;;1.53;;
4827;SDS011;2428;48.732;9.148;2023-08-01T09:30:09;2.27;;;1.63;;
4827;SDS011;2428;48.732;9.148;2023-08-01T09:32:38;1.87;;;1.17;;
4827;SDS011;2428;48.732;9.148;2023-08-01T09:35:04;2.20;;;1.10;;
4827;SDS011;2428;48.732;9.148;2023-08-01T09:37:40;2.10;;;1.07;;
4827;SDS011;2428;48.732;9.148;2023-08-01T09:40:07;1.20;;;1.20;;
4827;SDS011;2428;48.732;9.148;2023-08-01T09:42:37;1.10;;;0.83;;
4827;SDS011;2428;48.732;9.148;2023-08-01T09:45:17;0.60;;;0.50;;
4827;SDS011;2428;48.732;9.148;2023-08-01T09:47:43;1.37;;;1.10;;
4827;SDS011;2428;48.732;9.148;2023-08-01T09:50:10;0.60;;;0.60;;
4827;SDS011;2428;48.732;9.148;2023-08-01T09:52:38;1.43;;;1.33;;
4827;SDS011;2428;48.732;9.148;2023-08-01T09:55:04;0.80;;;0.80;;
4827;SDS011;2428;48.732;9.148;2023-08-01T09:57:30;0.87;;;0.83;;
4827;SDS011;2428;48.732;9.148;2023-08-01T09:59:57;0.90;;;0.73;;
4827;SDS011;2428;48.732;9.148;2023-08-01T10:02:24;0.60;;;0.60;;
4827;SDS011;2428;48.732;9.148;2023-08-01T10:04:54;0.70;;;0.70;;
4827;SDS011;2428;48.732;9.148;2023-08-01T10:07:26;2.50;;;0.77;;
4827;SDS011;2428;48.732;9.148;2023-08-01T10:09:57;0.90;;;0.90;;
4827;SDS011;2428;48.732;9.148;2023-08-01T10:12:24;0.90;;;0.90;;
4827;SDS011;2428;48.732;9.148;2023-08-01T10:14:51;1.17;;;0.40;;
4827;SDS011;2428;48.732;9.148;2023-08-01T10:17:18;0.40;;;0.40;;
4827;SDS011;2428;48.732;9.148;2023-08-01T10:19:45;0.77;;;0.77;;
4827;SDS011;2428;48.732;9.148;2023-08-01T10:22:13;0.77;;;0.77;;
4827;SDS011;2428;48.732;9.148;2023-08-01T10:24:39;0.67;;;0.67;;
4827;SDS011;2428;48.732;9.148;2023-08-01T10:27:12;0.40;;;0.40;;
4827;SDS011;2428;48.732;9.148;2023-08-01T10:29:44;1.27;;;0.87;;
4827;SDS011;2428;48.732;9.148;2023-08-01T10:32:10;2.20;;;0.50;;
4827;SDS011;2428;48.732;9.148;2023-08-01T10:34:36;0.40;;;0.40;;
4827;SDS011;2428;48.732;9.148;2023-08-01T10:37:02;0.50;;;0.50;;
4827;SDS011;2428;48.732;9.148;2023-08-01T10:39:28;0.90;;;0.90;;
4827;SDS011;2428;48.732;9.148;2023-08-01T10:42:00;0.90;;;0.57;;
4827;SDS011;2428;48.732;9.148;2023-08-01T10:44:27;0.70;;;0.70;;
4827;SDS011;2428;48.732;9.148;2023-08-01T10:47:02;0.60;;;0.60;;
4827;SDS011;2428;48.732;9.148;2023-08-01T10:49:33;0.40;;;0.40;;
4827;SDS011;2428;48.732;9.148;2023-08-01T10:52:04;1.20;;;1.10;;
4827;SDS011;2428;48.732;9.148;2023-08-01T10:54:44;0.60;;;0.30;;
4827;SDS011;2428;48.732;9.148;2023-08-01T10:57:15;1.17;;;0.50;;
4827;SDS011;2428;48.732;9.148;2023-08-01T10:59:44;0.50;;;0.30;;
4827;SDS011;2428;48.732;9.148;2023-08-01T11:02:10;1.00;;;1.00;;
4827;SDS011;2428;48.732;9.148;2023-08-01T11:04:36;0.70;;;0.60;;
4827;SDS011;2428;48.732;9.148;2023-08-01T11:07:01;0.73;;;0.73;;
4827;SDS011;2428;48.732;9.148;2023-08-01T11:09:29;0.70;;;0.47;;
4827;SDS011;2428;48.732;9.148;2023-08-01T11:11:56;0.60;;;0.40;;
4827;SDS011;2428;48.732;9.148;2023-08-01T11:14:23;0.80;;;0.80;;
4827;SDS011;2428;48.732;9.148;2023-08-01T11:16:56;0.60;;;0.40;;
4827;SDS011;2428;48.732;9.148;2023-08-01T11:19:23;0.50;;;0.50;;
4827;SDS011;2428;48.732;9.148;2023-08-01T11:21:54;0.50;;;0.50;;
4827;SDS011;2428;48.732;9.148;2023-08-01T11:24:25;0.60;;;0.60;;
4827;SDS011;2428;48.732;9.148;2023-08-01T11:26:52;0.60;;;0.30;;
4827;SDS011;2428;48.732;9.148;2023-08-01T11:29:19;0.70;;;0.70;;
4827;SDS011;2428;48.732;9.148;2023-08-01T11:31:58;0.43;;;0.40;;
4827;SDS011;2428;48.732;9.148;2023-08-01T11:34:25;0.53;;;0.40;;
4827;SDS011;2428;48.732;9.148;2023-08-01T11:36:51;0.90;;;0.50;;
4827;SDS011;2428;48.732;9.148;2023-08-01T11:39:17;0.40;;;0.40;;
4827;SDS011;2428;48.732;9.148;2023-08-01T11:41:43;1.80;;;0.70;;
4827;SDS011;2428;48.732;9.148;2023-08-01T11:44:09;0.67;;;0.47;;
4827;SDS011;2428;48.732;9.148;2023-08-01T11:46:36;1.07;;;0.80;;
4827;SDS011;2428;48.732;9.148;2023-08-01T11:49:03;0.50;;;0.40;;
4827;SDS011;2428;48.732;9.148;2023-08-01T11:51:38;0.87;;;0.73;;
4827;SDS011;2428;48.732;9.148;2023-08-01T11:54:08;0.60;;;0.60;;
4827;SDS011;2428;48.732;9.148;2023-08-01T11:56:36;0.60;;;0.50;;
4827;SDS011;2428;48.732;9.148;2023-08-01T11:59:13;0.90;;;0.70;;
4827;SDS011;2428;48.732;9.148;2023-08-01T12:01:40;1.93;;;0.60;;
4827;SDS011;2428;48.732;9.148;2023-08-01T12:04:07;0.50;;;0.50;;
4827;SDS011;2428;48.732;9.148;2023-08-01T12:06:33;1.33;;;0.93;;
4827;SDS011;2428;48.732;9.148;2023-08-01T12:09:11;0.50;;;0.40;;
4827;SDS011;2428;48.732;9.148;2023-08-01T12:11:38;0.70;;;0.60;;
4827;SDS011;2428;48.732;9.148;2023-08-01T12:14:12;1.43;;;0.90;;
4827;SDS011;2428;48.732;9.148;2023-08-01T12:16:42;1.27;;;0.57;;
4827;SDS011;2428;48.732;9.148;2023-08-01T12:19:10;0.63;;;0.50;;
4827;SDS011;2428;48.732;9.148;2023-08-01T12:21:41;0.60;;;0.60;;
4827;SDS011;2428;48.732;9.148;2023-08-01T12:24:06;0.70;;;0.63;;
4827;SDS011;2428;48.732;9.148;2023-08-01T12:26:32;0.70;;;0.60;;
4827;SDS011;2428;48.732;9.148;2023-08-01T12:28:58;1.00;;;0.57;;
4827;SDS011;2428;48.732;9.148;2023-08-01T12:31:23;1.60;;;0.90;;
4827;SDS011;2428;48.732;9.148;2023-08-01T12:33:49;0.93;;;0.50;;
4827;SDS011;2428;48.732;9.148;2023-08-01T12:36:15;0.70;;;0.70;;
4827;SDS011;2428;48.732;9.148;2023-08-01T12:38:41;0.93;;;0.83;;
4827;SDS011;2428;48.732;9.148;2023-08-01T12:41:07;1.33;;;0.70;;
4827;SDS011;2428;48.732;9.148;2023-08-01T12:43:33;0.80;;;0.60;;
4827;SDS011;2428;48.732;9.148;2023-08-01T12:45:58;0.77;;;0.70;;
4827;SDS011;2428;48.732;9.148;2023-08-01T12:48:24;1.13;;;1.00;;
4827;SDS011;2428;48.732;9.148;2023-08-01T12:50:50;0.67;;;0.60;;
4827;SDS011;2428;48.732;9.148;2023-08-01T12:53:16;0.67;;;0.57;;
4827;SDS011;2428;48.732;9.148;2023-08-01T12:55:45;0.73;;;0.50;;
4827;SDS011;2428;48.732;9.148;2023-08-01T12:58:12;0.60;;;0.60;;
4827;SDS011;2428;48.732;9.148;2023-08-01T13:00:41;1.00;;;0.90;;
4827;SDS011;2428;48.732;9.148;2023-08-01T13:03:08;1.03;;;0.93;;
4827;SDS011;2428;48.732;9.148;2023-08-01T13:05:34;0.60;;;0.60;;
4827;SDS011;2428;48.732;9.148;2023-08-01T13:08:00;0.60;;;0.50;;
4827;SDS011;2428;48.732;9.148;2023-08-01T13:10:29;0.60;;;0.60;;
4827;SDS011;2428;48.732;9.148;2023-08-01T13:13:04;1.50;;;0.77;;
4827;SDS011;2428;48.732;9.148;2023-08-01T13:15:29;0.83;;;0.60;;
4827;SDS011;2428;48.732;9.148;2023-08-01T13:17:55;1.37;;;0.67;;
4827;SDS011;2428;48.732;9.148;2023-08-01T13:20:21;0.80;;;0.80;;
4827;SDS011;2428;48.732;9.148;2023-08-01T13:22:48;0.80;;;0.77;;
4827;SDS011;2428;48.732;9.148;2023-08-01T13:25:16;1.93;;;1.20;;
4827;SDS011;2428;48.732;9.148;2023-08-01T13:27:42;0.70;;;0.70;;
4827;SDS011;2428;48.732;9.148;2023-08-01T13:30:08;0.60;;;0.50;;
4827;SDS011;2428;48.732;9.148;2023-08-01T13:32:34;1.07;;;0.83;;
4827;SDS011;2428;48.732;9.148;2023-08-01T13:35:00;0.77;;;0.77;;
4827;SDS011;2428;48.732;9.148;2023-08-01T13:37:26;0.60;;;0.50;;
4827;SDS011;2428;48.732;9.148;2023-08-01T13:39:54;1.43;;;0.60;;
4827;SDS011;2428;48.732;9.148;2023-08-01T13:42:19;1.77;;;0.70;;
4827;SDS011;2428;48.732;9.148;2023-08-01T13:44:45;5.50;;;0.90;;
4827;SDS011;2428;48.732;9.148;2023-08-01T13:47:11;1.43;;;0.70;;
4827;SDS011;2428;48.732;9.148;2023-08-01T13:49:36;0.90;;;0.90;;
4827;SDS011;2428;48.732;9.148;2023-08-01T13:52:03;1.57;;;0.70;;
4827;SDS011;2428;48.732;9.148;2023-08-01T13:54:29;1.07;;;1.07;;
4827;SDS011;2428;48.732;9.148;2023-08-01T13:56:55;1.17;;;0.80;;
4827;SDS011;2428;48.732;9.148;2023-08-01T13:59:20;1.17;;;1.07;;
4827;SDS011;2428;48.732;9.148;2023-08-01T14:01:46;1.23;;;1.13;;
4827;SDS011;2428;48.732;9.148;2023-08-01T14:04:12;1.07;;;0.60;;
4827;SDS011;2428;48.732;9.148;2023-08-01T14:06:41;1.20;;;1.10;;
4827;SDS011;2428;48.732;9.148;2023-08-01T14:09:07;1.50;;;1.33;;
4827;SDS011;2428;48.732;9.148;2023-08-01T14:11:37;0.97;;;0.90;;
4827;SDS011;2428;48.732;9.148;2023-08-01T14:14:03;1.53;;;0.93;;
4827;SDS011;2428;48.732;9.148;2023-08-01T14:16:29;0.80;;;0.80;;
4827;SDS011;2428;48.732;9.148;2023-08-01T14:18:55;0.70;;;0.70;;
4827;SDS011;2428;48.732;9.148;2023-08-01T14:21:21;1.50;;;1.10;;
4827;SDS011;2428;48.732;9.148;2023-08-01T14:23:47;1.00;;;0.60;;
4827;SDS011;2428;48.732;9.148;2023-08-01T14:26:13;1.53;;;0.90;;
4827;SDS011;2428;48.732;9.148;2023-08-01T14:28:38;0.97;;;0.90;;
4827;SDS011;2428;48.732;9.148;2023-08-01T14:31:04;1.00;;;0.90;;
4827;SDS011;2428;48.732;9.148;2023-08-01T14:33:30;1.27;;;0.90;;
4827;SDS011;2428;48.732;9.148;2023-08-01T14:35:55;0.70;;;0.70;;
4827;SDS011;2428;48.732;9.148;2023-08-01T14:38:21;1.33;;;1.23;;
4827;SDS011;2428;48.732;9.148;2023-08-01T14:40:47;1.40;;;1.00;;
4827;SDS011;2428;48.732;9.148;2023-08-01T14:43:13;1.30;;;0.90;;
4827;SDS011;2428;48.732;9.148;2023-08-01T14:45:39;0.97;;;0.70;;
4827;SDS011;2428;48.732;9.148;2023-08-01T14:48:05;1.17;;;1.07;;
4827;SDS011;2428;48.732;9.148;2023-08-01T14:50:31;1.83;;;0.70;;
4827;SDS011;2428;48.732;9.148;2023-08-01T14:52:57;1.30;;;0.63;;
4827;SDS011;2428;48.732;9.148;2023-08-01T14:55:23;1.40;;;0.80;;
4827;SDS011;2428;48.732;9.148;2023-08-01T14:57:48;1.63;;;0.87;;
4827;SDS011;2428;48.732;9.148;2023-08-01T15:00:15;0.70;;;0.70;;
4827;SDS011;2428;48.732;9.148;2023-08-01T15:02:41;1.37;;;1.27;;
4827;SDS011;2428;48.732;9.148;2023-08-01T15:05:06;1.00;;;0.80;;
4827;SDS011;2428;48.732;9.148;2023-08-01T15:07:32;0.83;;;0.60;;
4827;SDS011;2428;48.732;9.148;2023-08-01T15:09:58;0.80;;;0.80;;
4827;SDS011;2428;48.732;9.148;2023-08-01T15:12:23;1.57;;;0.90;;